Terminal Aerodrome Forecast
Issued by NWS Atlanta, GA

Home | Current Version | Previous Version | Text Only | Print | Product List | Glossary On
Versions: 1 2 3 4 5 6 7 8 9 10 11 12 13 14 15 16 17 18 19 20 21 22 23 24 25 26 27 28 29 30 31 32 33 34
321
FTUS42 KFFC 241733
TAFAHN
TAF
KAHN 241733Z 2418/2518 30005KT P6SM VCSH SCT040 BKN100
      TEMPO 2418/2422 4SM TSRA BKN030CB
     FM250000 25004KT P6SM SCT040 SCT150
     FM250800 26004KT 4SM BR SCT020 SCT200
     FM251400 28005KT P6SM SCT025 SCT200
     FM251600 30005KT P6SM VCSH SCT035 BKN100=

USA.gov is the U.S. government's official web portal to all federal, state and local government web resources and services.